sensor_id;sensor_type;location;lat;lon;timestamp;pressure;altitude;pressure_sealevel;temperature;humidity
43934;BME280;59081;42.706;23.306;2023-02-03T00:00:44;95477.81;;;1.49;83.46
43934;BME280;59081;42.706;23.306;2023-02-03T00:03:10;95337.53;;;0.49;84.03
43934;BME280;59081;42.706;23.306;2023-02-03T00:05:35;95345.13;;;0.40;85.38
43934;BME280;59081;42.706;23.306;2023-02-03T00:08:03;95305.28;;;0.10;86.19
43934;BME280;59081;42.706;23.306;2023-02-03T00:10:29;95499.31;;;1.31;86.98
43934;BME280;59081;42.706;23.306;2023-02-03T00:12:55;95292.41;;;0.04;87.16
43934;BME280;59081;42.706;23.306;2023-02-03T00:15:22;95320.63;;;0.03;88.35
43934;BME280;59081;42.706;23.306;2023-02-03T00:17:48;95441.97;;;0.69;89.95
43934;BME280;59081;42.706;23.306;2023-02-03T00:20:13;95361.75;;;0.08;90.47
43934;BME280;59081;42.706;23.306;2023-02-03T00:22:39;95499.66;;;0.96;91.45
43934;BME280;59081;42.706;23.306;2023-02-03T00:25:04;95351.56;;;0.02;91.34
43934;BME280;59081;42.706;23.306;2023-02-03T00:27:31;95354.69;;;0.04;91.55
43934;BME280;59081;42.706;23.306;2023-02-03T00:29:57;95436.13;;;0.41;92.43
43934;BME280;59081;42.706;23.306;2023-02-03T00:32:22;95348.59;;;-0.16;93.01
43934;BME280;59081;42.706;23.306;2023-02-03T00:34:48;95350.16;;;-0.15;93.58
43934;BME280;59081;42.706;23.306;2023-02-03T00:37:13;95377.88;;;0.27;93.15
43934;BME280;59081;42.706;23.306;2023-02-03T00:39:39;95501.94;;;0.94;93.18
43934;BME280;59081;42.706;23.306;2023-02-03T00:42:05;95391.16;;;0.10;94.29
43934;BME280;59081;42.706;23.306;2023-02-03T00:44:31;95527.31;;;0.79;95.37
43934;BME280;59081;42.706;23.306;2023-02-03T00:46:57;95288.63;;;-0.71;95.84
43934;BME280;59081;42.706;23.306;2023-02-03T00:49:23;95448.53;;;0.42;95.79
43934;BME280;59081;42.706;23.306;2023-02-03T00:51:49;95393.66;;;0.22;95.66
43934;BME280;59081;42.706;23.306;2023-02-03T00:54:14;95465.72;;;0.53;95.97
43934;BME280;59081;42.706;23.306;2023-02-03T00:56:40;95398.91;;;-0.15;97.43
43934;BME280;59081;42.706;23.306;2023-02-03T00:59:06;95435.03;;;0.19;97.60
43934;BME280;59081;42.706;23.306;2023-02-03T01:01:32;95506.69;;;0.74;96.11
43934;BME280;59081;42.706;23.306;2023-02-03T01:03:58;95474.06;;;0.41;96.06
43934;BME280;59081;42.706;23.306;2023-02-03T01:06:24;95399.25;;;-0.17;96.04
43934;BME280;59081;42.706;23.306;2023-02-03T01:08:50;95322.22;;;-0.72;97.64
43934;BME280;59081;42.706;23.306;2023-02-03T01:11:19;95541.84;;;0.67;98.17
43934;BME280;59081;42.706;23.306;2023-02-03T01:13:45;95389.59;;;-0.18;97.29
43934;BME280;59081;42.706;23.306;2023-02-03T01:16:13;95426.22;;;-0.01;96.99
43934;BME280;59081;42.706;23.306;2023-02-03T01:18:39;95286.41;;;-0.88;97.15
43934;BME280;59081;42.706;23.306;2023-02-03T01:21:14;95469.38;;;0.11;97.00
43934;BME280;59081;42.706;23.306;2023-02-03T01:23:40;95464.47;;;0.20;97.04
43934;BME280;59081;42.706;23.306;2023-02-03T01:26:09;95528.75;;;0.73;96.54
43934;BME280;59081;42.706;23.306;2023-02-03T01:28:35;95340.66;;;-0.55;95.48
43934;BME280;59081;42.706;23.306;2023-02-03T01:31:13;95390.56;;;-0.29;96.21
43934;BME280;59081;42.706;23.306;2023-02-03T01:33:39;95334.28;;;-0.66;95.92
43934;BME280;59081;42.706;23.306;2023-02-03T01:36:09;95398.44;;;-0.21;95.64
43934;BME280;59081;42.706;23.306;2023-02-03T01:38:36;95531.78;;;0.67;94.74
43934;BME280;59081;42.706;23.306;2023-02-03T01:41:02;95524.38;;;0.64;94.75
43934;BME280;59081;42.706;23.306;2023-02-03T01:43:30;95544.75;;;0.55;94.59
43934;BME280;59081;42.706;23.306;2023-02-03T01:45:57;95547.59;;;0.62;94.95
43934;BME280;59081;42.706;23.306;2023-02-03T01:48:23;95559.28;;;0.66;94.39
43934;BME280;59081;42.706;23.306;2023-02-03T01:50:49;95476.28;;;0.09;94.39
43934;BME280;59081;42.706;23.306;2023-02-03T01:53:15;95496.25;;;0.23;94.41
43934;BME280;59081;42.706;23.306;2023-02-03T01:55:44;95421.31;;;-0.41;95.46
43934;BME280;59081;42.706;23.306;2023-02-03T01:58:17;95550.72;;;0.41;95.61
43934;BME280;59081;42.706;23.306;2023-02-03T02:00:46;95339.75;;;-0.85;93.98
43934;BME280;59081;42.706;23.306;2023-02-03T02:03:13;95469.31;;;0.08;93.46
43934;BME280;59081;42.706;23.306;2023-02-03T02:05:49;95556.50;;;0.62;92.61
43934;BME280;59081;42.706;23.306;2023-02-03T02:08:17;95492.47;;;0.05;93.47
43934;BME280;59081;42.706;23.306;2023-02-03T02:10:44;95376.59;;;-0.77;93.96
43934;BME280;59081;42.706;23.306;2023-02-03T02:13:11;95345.91;;;-0.88;93.41
43934;BME280;59081;42.706;23.306;2023-02-03T02:27:01;95513.00;;;0.29;92.85
43934;BME280;59081;42.706;23.306;2023-02-03T02:32:43;95567.91;;;0.49;93.82
43934;BME280;59081;42.706;23.306;2023-02-03T02:35:31;95565.97;;;0.49;93.36
43934;BME280;59081;42.706;23.306;2023-02-03T02:40:52;95562.91;;;0.51;92.60
43934;BME280;59081;42.706;23.306;2023-02-03T02:43:23;95396.63;;;-0.82;93.66
43934;BME280;59081;42.706;23.306;2023-02-03T02:46:01;95481.53;;;-0.25;94.36
43934;BME280;59081;42.706;23.306;2023-02-03T02:50:57;95344.84;;;-1.03;92.50
43934;BME280;59081;42.706;23.306;2023-02-03T02:53:27;95558.50;;;0.20;92.45
43934;BME280;59081;42.706;23.306;2023-02-03T02:55:55;95553.88;;;-0.03;93.54
43934;BME280;59081;42.706;23.306;2023-02-03T02:58:22;95420.75;;;-0.73;92.77
43934;BME280;59081;42.706;23.306;2023-02-03T03:00:49;95550.44;;;0.23;91.52
43934;BME280;59081;42.706;23.306;2023-02-03T03:03:18;95581.75;;;0.44;90.52
43934;BME280;59081;42.706;23.306;2023-02-03T03:05:50;95483.25;;;-0.13;89.79
43934;BME280;59081;42.706;23.306;2023-02-03T03:08:18;95452.56;;;-0.44;89.24
43934;BME280;59081;42.706;23.306;2023-02-03T03:10:46;95514.63;;;-0.12;90.06
43934;BME280;59081;42.706;23.306;2023-02-03T03:13:34;95398.78;;;-0.68;88.18
43934;BME280;59081;42.706;23.306;2023-02-03T03:16:04;95415.16;;;-0.61;87.74
43934;BME280;59081;42.706;23.306;2023-02-03T03:18:43;95573.19;;;0.19;88.74
43934;BME280;59081;42.706;23.306;2023-02-03T03:21:15;95559.28;;;0.20;88.17
43934;BME280;59081;42.706;23.306;2023-02-03T03:23:45;95427.53;;;-0.60;86.77
43934;BME280;59081;42.706;23.306;2023-02-03T03:26:27;95483.09;;;-0.24;86.31
43934;BME280;59081;42.706;23.306;2023-02-03T03:29:13;95394.97;;;-0.86;86.46
43934;BME280;59081;42.706;23.306;2023-02-03T03:31:40;95514.44;;;-0.23;86.21
43934;BME280;59081;42.706;23.306;2023-02-03T03:34:08;95413.25;;;-0.80;86.33
43934;BME280;59081;42.706;23.306;2023-02-03T03:36:46;95516.59;;;-0.09;85.87
43934;BME280;59081;42.706;23.306;2023-02-03T03:42:18;95607.56;;;0.38;85.37
43934;BME280;59081;42.706;23.306;2023-02-03T03:44:51;95427.59;;;-0.98;85.80
43934;BME280;59081;42.706;23.306;2023-02-03T03:47:26;95561.22;;;-0.03;86.49
43934;BME280;59081;42.706;23.306;2023-02-03T03:49:54;95492.16;;;-0.36;85.02
43934;BME280;59081;42.706;23.306;2023-02-03T03:52:25;95566.53;;;0.13;85.49
43934;BME280;59081;42.706;23.306;2023-02-03T03:54:53;95392.44;;;-1.18;86.14
43934;BME280;59081;42.706;23.306;2023-02-03T03:57:40;95477.97;;;-0.71;87.45
43934;BME280;59081;42.706;23.306;2023-02-03T04:00:09;95481.94;;;-0.65;87.59
43934;BME280;59081;42.706;23.306;2023-02-03T04:02:38;95384.66;;;-1.23;87.14
43934;BME280;59081;42.706;23.306;2023-02-03T04:05:04;95516.25;;;-0.50;87.84
43934;BME280;59081;42.706;23.306;2023-02-03T04:07:43;95542.44;;;-0.35;87.56
43934;BME280;59081;42.706;23.306;2023-02-03T04:10:19;95442.13;;;-1.07;88.12
43934;BME280;59081;42.706;23.306;2023-02-03T04:12:45;95625.41;;;0.16;88.63
43934;BME280;59081;42.706;23.306;2023-02-03T04:15:11;95562.00;;;-0.03;87.63
43934;BME280;59081;42.706;23.306;2023-02-03T04:17:36;95471.44;;;-0.89;88.13
43934;BME280;59081;42.706;23.306;2023-02-03T04:20:04;95400.91;;;-1.38;88.91
43934;BME280;59081;42.706;23.306;2023-02-03T04:22:30;95477.41;;;-0.99;89.30
43934;BME280;59081;42.706;23.306;2023-02-03T04:24:56;95590.06;;;-0.11;88.07
43934;BME280;59081;42.706;23.306;2023-02-03T04:27:24;95560.75;;;-0.28;86.96
43934;BME280;59081;42.706;23.306;2023-02-03T04:29:50;95476.19;;;-1.02;87.87
43934;BME280;59081;42.706;23.306;2023-02-03T04:32:15;95645.22;;;0.00;88.51
43934;BME280;59081;42.706;23.306;2023-02-03T04:34:41;95464.53;;;-1.06;88.12
43934;BME280;59081;42.706;23.306;2023-02-03T04:37:07;95550.97;;;-0.32;87.37
43934;BME280;59081;42.706;23.306;2023-02-03T04:39:32;95524.25;;;-0.57;87.38
43934;BME280;59081;42.706;23.306;2023-02-03T04:41:58;95496.69;;;-0.82;87.37
43934;BME280;59081;42.706;23.306;2023-02-03T04:44:23;95470.72;;;-1.06;87.41
43934;BME280;59081;42.706;23.306;2023-02-03T04:46:49;95487.78;;;-1.01;87.87
43934;BME280;59081;42.706;23.306;2023-02-03T04:49:14;95590.00;;;-0.14;86.98
43934;BME280;59081;42.706;23.306;2023-02-03T04:51:42;95670.22;;;0.32;86.88
43934;BME280;59081;42.706;23.306;2023-02-03T04:54:09;95440.19;;;-1.25;86.66
43934;BME280;59081;42.706;23.306;2023-02-03T04:56:35;95559.34;;;-0.60;87.28
43934;BME280;59081;42.706;23.306;2023-02-03T04:59:01;95592.44;;;-0.28;87.01
43934;BME280;59081;42.706;23.306;2023-02-03T05:01:27;95556.84;;;-0.50;86.50
43934;BME280;59081;42.706;23.306;2023-02-03T05:03:52;95443.38;;;-1.20;85.94
43934;BME280;59081;42.706;23.306;2023-02-03T05:06:24;95551.66;;;-0.58;86.70
43934;BME280;59081;42.706;23.306;2023-02-03T05:08:51;95568.59;;;-0.61;87.13
43934;BME280;59081;42.706;23.306;2023-02-03T05:11:17;95580.00;;;-0.52;87.31
43934;BME280;59081;42.706;23.306;2023-02-03T05:13:42;95561.81;;;-0.52;86.14
43934;BME280;59081;42.706;23.306;2023-02-03T05:16:08;95588.81;;;-0.36;86.05
43934;BME280;59081;42.706;23.306;2023-02-03T05:18:33;95605.69;;;-0.43;86.28
43934;BME280;59081;42.706;23.306;2023-02-03T05:20:59;95543.72;;;-0.86;86.45
43934;BME280;59081;42.706;23.306;2023-02-03T05:23:24;95670.75;;;-0.01;86.53
43934;BME280;59081;42.706;23.306;2023-02-03T05:25:50;95602.47;;;-0.48;86.02
43934;BME280;59081;42.706;23.306;2023-02-03T05:28:15;95651.44;;;-0.18;86.23
43934;BME280;59081;42.706;23.306;2023-02-03T05:30:41;95644.22;;;-0.30;86.62
43934;BME280;59081;42.706;23.306;2023-02-03T05:33:07;95548.63;;;-1.11;86.99
43934;BME280;59081;42.706;23.306;2023-02-03T05:35:32;95723.72;;;0.16;87.32
43934;BME280;59081;42.706;23.306;2023-02-03T05:37:58;95613.81;;;-0.43;86.58
43934;BME280;59081;42.706;23.306;2023-02-03T05:40:24;95588.53;;;-0.50;85.60
43934;BME280;59081;42.706;23.306;2023-02-03T05:43:08;95727.06;;;0.29;86.17
43934;BME280;59081;42.706;23.306;2023-02-03T05:45:34;95716.84;;;0.22;86.79
43934;BME280;59081;42.706;23.306;2023-02-03T05:47:59;95585.34;;;-0.56;86.24
43934;BME280;59081;42.706;23.306;2023-02-03T05:50:29;95588.31;;;-0.61;86.04
43934;BME280;59081;42.706;23.306;2023-02-03T05:53:03;95684.34;;;0.03;86.51
43934;BME280;59081;42.706;23.306;2023-02-03T05:55:29;95537.09;;;-1.08;86.61
43934;BME280;59081;42.706;23.306;2023-02-03T05:57:55;95676.66;;;-0.14;86.41
43934;BME280;59081;42.706;23.306;2023-02-03T06:00:21;95731.34;;;0.30;85.84
43934;BME280;59081;42.706;23.306;2023-02-03T06:02:58;95661.09;;;-0.17;85.74
43934;BME280;59081;42.706;23.306;2023-02-03T06:05:26;95743.44;;;0.36;85.37
43934;BME280;59081;42.706;23.306;2023-02-03T06:07:52;95623.44;;;-0.45;85.05
43934;BME280;59081;42.706;23.306;2023-02-03T06:10:18;95617.44;;;-0.16;85.27
43934;BME280;59081;42.706;23.306;2023-02-03T06:12:43;95632.91;;;-0.16;83.64
43934;BME280;59081;42.706;23.306;2023-02-03T06:15:10;95563.59;;;-0.40;83.29
43934;BME280;59081;42.706;23.306;2023-02-03T06:17:36;95681.03;;;0.52;82.21
43934;BME280;59081;42.706;23.306;2023-02-03T06:20:06;95710.28;;;0.85;80.80
43934;BME280;59081;42.706;23.306;2023-02-03T06:22:32;95578.28;;;0.01;80.17
43934;BME280;59081;42.706;23.306;2023-02-03T06:24:58;95636.16;;;0.12;80.75
43934;BME280;59081;42.706;23.306;2023-02-03T06:27:24;95759.47;;;0.87;81.19
43934;BME280;59081;42.706;23.306;2023-02-03T06:29:49;95568.88;;;-0.28;81.20
43934;BME280;59081;42.706;23.306;2023-02-03T06:32:15;95712.69;;;0.48;81.46
43934;BME280;59081;42.706;23.306;2023-02-03T06:34:41;95574.63;;;-0.49;81.95
43934;BME280;59081;42.706;23.306;2023-02-03T06:37:06;95722.38;;;0.68;81.55
43934;BME280;59081;42.706;23.306;2023-02-03T06:39:32;95737.91;;;0.94;79.79
43934;BME280;59081;42.706;23.306;2023-02-03T06:41:57;95739.00;;;0.66;80.36
43934;BME280;59081;42.706;23.306;2023-02-03T06:44:23;95551.38;;;-0.53;80.40
43934;BME280;59081;42.706;23.306;2023-02-03T06:46:48;95607.53;;;-0.27;80.38
43934;BME280;59081;42.706;23.306;2023-02-03T06:49:15;95662.47;;;-0.08;80.70
43934;BME280;59081;42.706;23.306;2023-02-03T06:51:44;95584.41;;;-0.44;80.50
43934;BME280;59081;42.706;23.306;2023-02-03T06:54:11;95715.06;;;0.72;79.67
43934;BME280;59081;42.706;23.306;2023-02-03T06:56:36;95799.69;;;1.04;78.83
43934;BME280;59081;42.706;23.306;2023-02-03T06:59:02;95652.69;;;0.07;78.15
43934;BME280;59081;42.706;23.306;2023-02-03T07:01:28;95695.97;;;0.23;78.31
43934;BME280;59081;42.706;23.306;2023-02-03T07:03:54;95665.38;;;0.03;79.05
43934;BME280;59081;42.706;23.306;2023-02-03T07:06:22;95807.44;;;1.70;89.51
43934;BME280;59081;42.706;23.306;2023-02-03T07:08:48;95637.63;;;1.50;73.19
43934;BME280;59081;42.706;23.306;2023-02-03T07:11:13;95764.97;;;2.15;72.40
43934;BME280;59081;42.706;23.306;2023-02-03T07:13:39;95784.19;;;2.29;71.64
43934;BME280;59081;42.706;23.306;2023-02-03T07:16:05;95663.00;;;1.95;70.68
43934;BME280;59081;42.706;23.306;2023-02-03T07:18:31;95709.16;;;2.21;70.50
43934;BME280;59081;42.706;23.306;2023-02-03T07:20:56;95659.22;;;1.43;70.98
43934;BME280;59081;42.706;23.306;2023-02-03T07:23:22;95655.47;;;1.51;70.97
43934;BME280;59081;42.706;23.306;2023-02-03T07:25:48;95735.41;;;2.10;71.26
43934;BME280;59081;42.706;23.306;2023-02-03T07:28:13;95832.00;;;2.97;69.93
43934;BME280;59081;42.706;23.306;2023-02-03T07:30:39;95796.22;;;2.58;69.21
43934;BME280;59081;42.706;23.306;2023-02-03T07:33:04;95744.97;;;2.30;68.84
43934;BME280;59081;42.706;23.306;2023-02-03T07:35:30;95662.59;;;1.63;69.21
43934;BME280;59081;42.706;23.306;2023-02-03T07:37:55;95663.38;;;1.93;68.79
43934;BME280;59081;42.706;23.306;2023-02-03T07:40:21;95832.00;;;2.97;68.42
43934;BME280;59081;42.706;23.306;2023-02-03T07:42:47;95662.66;;;1.66;68.60
43934;BME280;59081;42.706;23.306;2023-02-03T07:45:15;95682.69;;;1.85;68.21
43934;BME280;59081;42.706;23.306;2023-02-03T07:47:41;95621.59;;;1.71;67.91
43934;BME280;59081;42.706;23.306;2023-02-03T07:50:08;95678.22;;;1.99;67.38
43934;BME280;59081;42.706;23.306;2023-02-03T07:52:34;95716.38;;;2.43;66.91
43934;BME280;59081;42.706;23.306;2023-02-03T07:54:59;95801.06;;;3.12;65.96
43934;BME280;59081;42.706;23.306;2023-02-03T07:57:25;95656.00;;;1.90;65.39
43934;BME280;59081;42.706;23.306;2023-02-03T07:59:51;95734.34;;;2.18;66.55
43934;BME280;59081;42.706;23.306;2023-02-03T08:02:17;95820.91;;;2.76;66.42
43934;BME280;59081;42.706;23.306;2023-02-03T08:04:42;95724.69;;;2.21;66.78
43934;BME280;59081;42.706;23.306;2023-02-03T08:07:08;95807.09;;;2.95;66.13
43934;BME280;59081;42.706;23.306;2023-02-03T08:09:33;95680.34;;;2.17;65.95
43934;BME280;59081;42.706;23.306;2023-02-03T08:11:59;95720.22;;;2.39;65.84
43934;BME280;59081;42.706;23.306;2023-02-03T08:14:24;95678.00;;;2.15;66.45
43934;BME280;59081;42.706;23.306;2023-02-03T08:16:50;95727.34;;;2.51;65.94
43934;BME280;59081;42.706;23.306;2023-02-03T08:19:15;95654.78;;;2.21;65.11
43934;BME280;59081;42.706;23.306;2023-02-03T08:21:41;95745.47;;;2.73;65.12
43934;BME280;59081;42.706;23.306;2023-02-03T08:24:07;95805.47;;;3.24;64.71
43934;BME280;59081;42.706;23.306;2023-02-03T08:26:34;95640.69;;;2.12;65.25
43934;BME280;59081;42.706;23.306;2023-02-03T08:29:00;95770.31;;;3.08;64.71
43934;BME280;59081;42.706;23.306;2023-02-03T08:31:28;95830.28;;;3.56;64.69
43934;BME280;59081;42.706;23.306;2023-02-03T08:33:54;95725.13;;;3.00;64.03
43934;BME280;59081;42.706;23.306;2023-02-03T08:36:19;95823.34;;;3.62;63.17
43934;BME280;59081;42.706;23.306;2023-02-03T08:38:45;95764.31;;;3.33;62.47
43934;BME280;59081;42.706;23.306;2023-02-03T08:41:13;95729.53;;;3.15;61.92
43934;BME280;59081;42.706;23.306;2023-02-03T08:43:42;95704.66;;;3.17;59.93
43934;BME280;59081;42.706;23.306;2023-02-03T08:46:17;95776.97;;;3.59;58.00
43934;BME280;59081;42.706;23.306;2023-02-03T08:48:43;95807.59;;;3.41;59.50
43934;BME280;59081;42.706;23.306;2023-02-03T08:51:11;95743.34;;;2.93;60.19
43934;BME280;59081;42.706;23.306;2023-02-03T08:53:37;95718.31;;;2.76;61.24
43934;BME280;59081;42.706;23.306;2023-02-03T08:56:07;95817.06;;;3.58;60.84
43934;BME280;59081;42.706;23.306;2023-02-03T08:58:34;95772.34;;;3.19;60.63
43934;BME280;59081;42.706;23.306;2023-02-03T09:01:10;95800.22;;;3.45;61.97
43934;BME280;59081;42.706;23.306;2023-02-03T09:03:36;95717.81;;;3.08;62.13
43934;BME280;59081;42.706;23.306;2023-02-03T09:06:03;95738.22;;;3.32;61.64
43934;BME280;59081;42.706;23.306;2023-02-03T09:08:29;95786.75;;;3.63;60.70
43934;BME280;59081;42.706;23.306;2023-02-03T09:10:55;95695.03;;;2.83;61.07
43934;BME280;59081;42.706;23.306;2023-02-03T09:13:21;95746.88;;;3.41;61.14
43934;BME280;59081;42.706;23.306;2023-02-03T09:15:46;95778.81;;;3.03;62.00
43934;BME280;59081;42.706;23.306;2023-02-03T09:18:12;95744.97;;;3.01;62.04
43934;BME280;59081;42.706;23.306;2023-02-03T09:20:37;95801.94;;;3.68;61.70
43934;BME280;59081;42.706;23.306;2023-02-03T09:23:03;95677.09;;;2.78;61.29
43934;BME280;59081;42.706;23.306;2023-02-03T09:25:29;95839.97;;;3.98;61.25
43934;BME280;59081;42.706;23.306;2023-02-03T09:27:54;95804.69;;;3.68;60.61
43934;BME280;59081;42.706;23.306;2023-02-03T09:30:20;95819.28;;;3.45;61.07
43934;BME280;59081;42.706;23.306;2023-02-03T09:32:46;95642.50;;;2.01;62.20
43934;BME280;59081;42.706;23.306;2023-02-03T09:35:18;95709.25;;;2.32;63.58
43934;BME280;59081;42.706;23.306;2023-02-03T09:37:45;95805.91;;;2.56;64.94
43934;BME280;59081;42.706;23.306;2023-02-03T09:40:32;95645.22;;;2.01;63.92
43934;BME280;59081;42.706;23.306;2023-02-03T09:46:17;95821.25;;;3.96;61.16
43934;BME280;59081;42.706;23.306;2023-02-03T09:48:50;95791.72;;;4.05;58.96
43934;BME280;59081;42.706;23.306;2023-02-03T09:51:21;95633.59;;;3.33;57.35
43934;BME280;59081;42.706;23.306;2023-02-03T09:53:53;95633.41;;;3.04;56.93
43934;BME280;59081;42.706;23.306;2023-02-03T09:56:28;95686.31;;;3.58;56.99
43934;BME280;59081;42.706;23.306;2023-02-03T09:58:54;95737.81;;;3.77;57.25
43934;BME280;59081;42.706;23.306;2023-02-03T10:01:21;95621.66;;;2.90;56.54
43934;BME280;59081;42.706;23.306;2023-02-03T10:04:01;95712.94;;;3.86;55.21
43934;BME280;59081;42.706;23.306;2023-02-03T10:06:42;95828.50;;;4.33;55.69
43934;BME280;59081;42.706;23.306;2023-02-03T10:09:18;95822.13;;;4.11;56.44
43934;BME280;59081;42.706;23.306;2023-02-03T10:22:14;95627.75;;;4.07;53.57
43934;BME280;59081;42.706;23.306;2023-02-03T10:24:55;95760.81;;;4.60;53.23
43934;BME280;59081;42.706;23.306;2023-02-03T10:27:23;95599.75;;;4.10;53.25
43934;BME280;59081;42.706;23.306;2023-02-03T10:30:09;95755.13;;;5.39;52.04
43934;BME280;59081;42.706;23.306;2023-02-03T10:32:43;95695.50;;;3.98;50.16
43934;BME280;59081;42.706;23.306;2023-02-03T10:35:12;95730.28;;;4.26;51.37
43934;BME280;59081;42.706;23.306;2023-02-03T10:37:43;95574.44;;;3.23;52.58
43934;BME280;59081;42.706;23.306;2023-02-03T10:43:04;95580.53;;;2.54;55.15
43934;BME280;59081;42.706;23.306;2023-02-03T10:45:48;95816.47;;;3.82;56.03
43934;BME280;59081;42.706;23.306;2023-02-03T10:48:16;95770.56;;;3.37;54.54
43934;BME280;59081;42.706;23.306;2023-02-03T10:50:47;95750.63;;;3.22;55.06
43934;BME280;59081;42.706;23.306;2023-02-03T10:53:22;95756.25;;;3.47;53.82
43934;BME280;59081;42.706;23.306;2023-02-03T10:56:00;95657.78;;;2.90;52.86
43934;BME280;59081;42.706;23.306;2023-02-03T10:58:28;95636.63;;;2.69;53.04
43934;BME280;59081;42.706;23.306;2023-02-03T11:01:12;95801.53;;;3.62;53.70
43934;BME280;59081;42.706;23.306;2023-02-03T11:03:44;95734.88;;;3.49;52.33
43934;BME280;59081;42.706;23.306;2023-02-03T11:06:18;95732.38;;;3.30;51.13
43934;BME280;59081;42.706;23.306;2023-02-03T11:08:53;95806.31;;;3.76;50.85
43934;BME280;59081;42.706;23.306;2023-02-03T11:11:35;95693.09;;;3.31;50.82
43934;BME280;59081;42.706;23.306;2023-02-03T11:16:32;95646.06;;;2.83;46.29
43934;BME280;59081;42.706;23.306;2023-02-03T11:19:09;95618.69;;;2.65;47.55
43934;BME280;59081;42.706;23.306;2023-02-03T11:21:43;95792.94;;;4.11;47.16
43934;BME280;59081;42.706;23.306;2023-02-03T11:24:23;95788.81;;;4.42;46.42
43934;BME280;59081;42.706;23.306;2023-02-03T11:26:57;95662.84;;;4.12;46.12
43934;BME280;59081;42.706;23.306;2023-02-03T11:29:29;95662.53;;;4.38;46.46
43934;BME280;59081;42.706;23.306;2023-02-03T11:31:57;95618.84;;;4.17;46.86
43934;BME280;59081;42.706;23.306;2023-02-03T11:34:30;95598.56;;;4.11;46.39
43934;BME280;59081;42.706;23.306;2023-02-03T11:37:22;95671.97;;;4.62;47.21
43934;BME280;59081;42.706;23.306;2023-02-03T11:39:49;95693.69;;;4.27;49.24
43934;BME280;59081;42.706;23.306;2023-02-03T11:42:22;95576.66;;;3.06;49.26
43934;BME280;59081;42.706;23.306;2023-02-03T11:44:48;95584.09;;;3.17;46.56
43934;BME280;59081;42.706;23.306;2023-02-03T11:47:15;95733.06;;;3.67;44.40
43934;BME280;59081;42.706;23.306;2023-02-03T12:13:32;95704.00;;;5.57;41.29
43934;BME280;59081;42.706;23.306;2023-02-03T12:19:10;95530.03;;;5.08;37.39
43934;BME280;59081;42.706;23.306;2023-02-03T12:21:50;95560.41;;;5.32;36.50
43934;BME280;59081;42.706;23.306;2023-02-03T12:27:37;95561.69;;;6.18;36.92
43934;BME280;59081;42.706;23.306;2023-02-03T12:30:38;95732.16;;;6.88;36.64
43934;BME280;59081;42.706;23.306;2023-02-03T12:33:15;95744.41;;;7.31;36.22
43934;BME280;59081;42.706;23.306;2023-02-03T12:35:55;95558.66;;;6.60;35.24
43934;BME280;59081;42.706;23.306;2023-02-03T12:38:35;95623.50;;;6.01;37.16
43934;BME280;59081;42.706;23.306;2023-02-03T12:44:16;95532.31;;;6.81;35.65
43934;BME280;59081;42.706;23.306;2023-02-03T12:47:00;95531.94;;;7.23;34.81
43934;BME280;59081;42.706;23.306;2023-02-03T12:49:59;95563.81;;;6.51;35.93
43934;BME280;59081;42.706;23.306;2023-02-03T12:55:57;95721.38;;;7.74;36.94
43934;BME280;59081;42.706;23.306;2023-02-03T12:58:28;95714.09;;;7.56;37.19
43934;BME280;59081;42.706;23.306;2023-02-03T13:01:15;95496.34;;;5.54;39.38
43934;BME280;59081;42.706;23.306;2023-02-03T13:12:27;95570.72;;;6.08;39.95
43934;BME280;59081;42.706;23.306;2023-02-03T13:14:59;95686.75;;;7.46;38.88
43934;BME280;59081;42.706;23.306;2023-02-03T13:17:43;95526.59;;;6.61;38.05
43934;BME280;59081;42.706;23.306;2023-02-03T13:20:20;95527.53;;;5.64;40.19
43934;BME280;59081;42.706;23.306;2023-02-03T13:22:49;95516.81;;;4.32;43.52
43934;BME280;59081;42.706;23.306;2023-02-03T13:41:55;95529.28;;;4.90;43.17
43934;BME280;59081;42.706;23.306;2023-02-03T13:44:36;95640.75;;;5.59;43.26
43934;BME280;59081;42.706;23.306;2023-02-03T13:47:03;95711.81;;;5.23;45.03
43934;BME280;59081;42.706;23.306;2023-02-03T13:49:32;95522.72;;;3.26;46.97
43934;BME280;59081;42.706;23.306;2023-02-03T13:51:59;95507.97;;;3.31;47.62
43934;BME280;59081;42.706;23.306;2023-02-03T13:54:29;95532.22;;;2.88;49.75
43934;BME280;59081;42.706;23.306;2023-02-03T13:57:02;95483.28;;;1.93;51.96
43934;BME280;59081;42.706;23.306;2023-02-03T14:20:56;95710.25;;;3.93;52.62
43934;BME280;59081;42.706;23.306;2023-02-03T14:23:27;95521.50;;;2.55;53.06
43934;BME280;59081;42.706;23.306;2023-02-03T14:25:57;95661.06;;;3.10;53.48
43934;BME280;59081;42.706;23.306;2023-02-03T14:28:41;95593.06;;;2.66;54.15
43934;BME280;59081;42.706;23.306;2023-02-03T14:31:17;95678.53;;;3.64;53.18
43934;BME280;59081;42.706;23.306;2023-02-03T14:33:51;95703.69;;;3.98;52.36
43934;BME280;59081;42.706;23.306;2023-02-03T14:36:31;95596.38;;;2.89;52.66
43934;BME280;59081;42.706;23.306;2023-02-03T14:39:03;95535.66;;;2.30;53.32
43934;BME280;59081;42.706;23.306;2023-02-03T14:50:34;95653.19;;;2.98;53.26
43934;BME280;59081;42.706;23.306;2023-02-03T14:53:21;95713.13;;;3.05;52.56
43934;BME280;59081;42.706;23.306;2023-02-03T14:55:59;95710.81;;;3.07;52.03
43934;BME280;59081;42.706;23.306;2023-02-03T14:58:35;95586.88;;;2.25;51.51
43934;BME280;59081;42.706;23.306;2023-02-03T15:01:22;95566.84;;;2.03;51.17
43934;BME280;59081;42.706;23.306;2023-02-03T15:04:26;95602.59;;;2.42;49.73
43934;BME280;59081;42.706;23.306;2023-02-03T15:06:52;95637.53;;;2.84;49.23
43934;BME280;59081;42.706;23.306;2023-02-03T15:09:25;95591.91;;;2.26;50.00
43934;BME280;59081;42.706;23.306;2023-02-03T15:11:53;95675.56;;;2.77;50.75
43934;BME280;59081;42.706;23.306;2023-02-03T15:17:12;95589.09;;;2.16;51.81
43934;BME280;59081;42.706;23.306;2023-02-03T15:19:40;95579.34;;;2.11;52.39
43934;BME280;59081;42.706;23.306;2023-02-03T15:22:27;95502.13;;;1.75;52.31
43934;BME280;59081;42.706;23.306;2023-02-03T15:25:02;95663.06;;;2.72;52.10
43934;BME280;59081;42.706;23.306;2023-02-03T15:27:31;95457.28;;;1.18;53.43